createdAt,value
2018-12-11T00:01:46.746Z,11.47
2018-12-11T00:04:15.637Z,13.93
2018-12-11T00:06:44.590Z,19.43
2018-12-11T00:09:13.525Z,16.00
2018-12-11T00:11:42.427Z,12.27
2018-12-11T00:14:11.397Z,11.80
2018-12-11T00:16:40.316Z,11.80
2018-12-11T00:19:09.242Z,12.30
2018-12-11T00:21:38.278Z,11.20
2018-12-11T00:24:07.191Z,11.37
2018-12-11T00:26:36.144Z,23.73
2018-12-11T00:29:05.992Z,22.37
2018-12-11T00:31:35.026Z,12.63
2018-12-11T00:34:03.957Z,13.20
2018-12-11T00:36:32.875Z,11.47
2018-12-11T00:39:01.835Z,11.00
2018-12-11T00:41:30.794Z,11.37
2018-12-11T00:43:59.738Z,10.97
2018-12-11T00:46:28.666Z,19.87
2018-12-11T00:48:57.613Z,14.80
2018-12-11T00:51:26.538Z,12.40
2018-12-11T00:53:55.469Z,11.23
2018-12-11T00:56:24.436Z,9.87
2018-12-11T00:58:53.358Z,12.13
2018-12-11T01:01:22.329Z,10.90
2018-12-11T01:03:51.243Z,10.70
2018-12-11T01:06:22.287Z,10.70
2018-12-11T01:08:51.238Z,10.93
2018-12-11T01:11:20.140Z,14.20
2018-12-11T01:13:49.071Z,18.03
2018-12-11T01:16:18.045Z,10.13
2018-12-11T01:18:46.981Z,11.87
2018-12-11T01:21:16.000Z,11.67
2018-12-11T01:23:44.949Z,11.17
2018-12-11T01:26:13.855Z,12.03
2018-12-11T01:28:42.848Z,11.10
2018-12-11T01:31:11.790Z,11.10
2018-12-11T01:33:40.764Z,11.73
2018-12-11T01:36:09.704Z,17.87
2018-12-11T01:38:38.648Z,14.47
2018-12-11T01:41:07.565Z,10.33
2018-12-11T01:43:36.558Z,10.73
2018-12-11T01:46:05.538Z,10.40
2018-12-11T01:48:34.464Z,9.80
2018-12-11T01:51:03.428Z,9.57
2018-12-11T01:53:32.375Z,9.43
2018-12-11T01:56:01.333Z,9.83
2018-12-11T01:58:30.299Z,9.33
2018-12-11T02:00:59.199Z,9.03
2018-12-11T02:03:28.139Z,10.53
2018-12-11T02:05:57.105Z,10.07
2018-12-11T02:08:26.062Z,10.13
2018-12-11T02:10:54.995Z,10.83
2018-12-11T02:13:23.988Z,10.50
2018-12-11T02:15:52.936Z,9.60
2018-12-11T02:18:21.841Z,9.80
2018-12-11T02:20:50.822Z,8.97
2018-12-11T02:23:19.759Z,10.40
2018-12-11T02:25:48.660Z,16.70
2018-12-11T02:28:17.598Z,12.63
2018-12-11T02:30:46.533Z,10.20
2018-12-11T02:33:15.434Z,8.73
2018-12-11T02:35:44.439Z,8.63
2018-12-11T02:38:13.389Z,8.83
2018-12-11T02:40:42.349Z,8.67
2018-12-11T02:43:11.317Z,9.80
2018-12-11T02:45:40.236Z,26.50
2018-12-11T02:48:09.182Z,13.77
2018-12-11T02:50:38.108Z,11.90
2018-12-11T02:53:07.068Z,10.27
2018-12-11T02:55:36.057Z,9.17
2018-12-11T02:58:04.982Z,8.57
2018-12-11T03:00:34.475Z,9.10
2018-12-11T03:03:03.443Z,9.47
2018-12-11T03:05:32.587Z,9.03
2018-12-11T03:08:01.471Z,10.80
2018-12-11T03:10:30.421Z,14.50
2018-12-11T03:12:59.337Z,8.53
2018-12-11T03:15:28.293Z,10.03
2018-12-11T03:17:57.305Z,10.37
2018-12-11T03:20:26.231Z,10.30
2018-12-11T03:22:55.146Z,10.27
2018-12-11T03:25:24.048Z,10.50
2018-12-11T03:27:52.997Z,10.60
2018-12-11T03:30:21.944Z,9.87
2018-12-11T03:32:50.926Z,12.70
2018-12-11T03:35:19.843Z,12.97
2018-12-11T03:37:48.757Z,13.60
2018-12-11T03:40:17.701Z,12.00
2018-12-11T03:42:46.745Z,12.77
2018-12-11T03:45:15.664Z,13.70
2018-12-11T03:47:44.603Z,15.83
2018-12-11T03:50:13.698Z,14.13
2018-12-11T03:52:42.611Z,13.57
2018-12-11T03:55:11.588Z,13.80
2018-12-11T03:57:40.563Z,13.10
2018-12-11T04:00:10.292Z,13.57
2018-12-11T04:02:39.245Z,12.60
2018-12-11T04:05:08.523Z,12.50
2018-12-11T04:07:37.462Z,14.53
2018-12-11T04:10:07.999Z,21.67
2018-12-11T04:12:36.991Z,24.73
2018-12-11T04:15:06.496Z,27.93
2018-12-11T04:17:35.424Z,31.77
2018-12-11T04:20:05.150Z,33.73
2018-12-11T04:22:34.121Z,24.70
2018-12-11T04:25:06.214Z,21.03
2018-12-11T04:27:35.172Z,17.30
2018-12-11T04:30:06.118Z,13.17
2018-12-11T04:32:35.093Z,10.20
2018-12-11T04:35:04.185Z,11.80
2018-12-11T04:37:33.141Z,11.20
2018-12-11T04:40:02.069Z,11.43
2018-12-11T04:42:30.975Z,11.87
2018-12-11T04:44:59.901Z,11.87
2018-12-11T04:47:28.811Z,12.50
2018-12-11T04:49:57.734Z,13.00
2018-12-11T04:52:26.621Z,14.30
2018-12-11T04:54:55.508Z,13.20
2018-12-11T04:57:24.857Z,12.67
2018-12-11T04:59:53.701Z,11.93
2018-12-11T05:02:22.598Z,10.50
2018-12-11T05:04:51.501Z,9.77
2018-12-11T05:07:20.356Z,10.30
2018-12-11T05:09:49.209Z,10.07
2018-12-11T05:12:18.113Z,10.60
2018-12-11T05:14:47.000Z,10.50
2018-12-11T05:17:15.938Z,12.53
2018-12-11T05:19:44.813Z,11.50
2018-12-11T05:22:13.694Z,11.07
2018-12-11T05:24:42.595Z,11.07
2018-12-11T05:27:11.444Z,10.47
2018-12-11T05:29:40.333Z,11.93
2018-12-11T05:32:09.241Z,13.70
2018-12-11T05:34:38.354Z,14.70
2018-12-11T05:37:07.547Z,13.77
2018-12-11T05:39:36.495Z,13.63
2018-12-11T05:42:05.391Z,13.07
2018-12-11T05:44:34.271Z,13.27
2018-12-11T05:47:03.158Z,14.50
2018-12-11T05:49:32.375Z,15.10
2018-12-11T05:52:01.398Z,13.03
2018-12-11T05:54:30.331Z,15.50
2018-12-11T05:56:59.260Z,15.60
2018-12-11T05:59:28.153Z,14.47
2018-12-11T06:01:57.105Z,13.07
2018-12-11T06:04:25.994Z,12.43
2018-12-11T06:06:55.394Z,13.13
2018-12-11T06:09:24.490Z,13.27
2018-12-11T06:11:53.385Z,14.00
2018-12-11T06:14:22.398Z,15.30
2018-12-11T06:16:51.408Z,16.57
2018-12-11T06:19:20.370Z,16.87
2018-12-11T06:21:49.619Z,14.23
2018-12-11T06:24:18.548Z,15.40
2018-12-11T06:26:47.479Z,16.23
2018-12-11T06:29:16.552Z,14.43
2018-12-11T06:31:45.587Z,13.47
2018-12-11T06:34:14.649Z,14.43
2018-12-11T06:36:43.765Z,14.40
2018-12-11T06:39:12.716Z,15.10
2018-12-11T06:41:41.719Z,14.47
2018-12-11T06:44:10.855Z,12.97
2018-12-11T06:46:39.852Z,13.87
2018-12-11T06:49:09.109Z,14.60
2018-12-11T06:51:38.153Z,14.67
2018-12-11T06:54:07.138Z,14.97
2018-12-11T06:56:36.208Z,15.30
2018-12-11T06:59:05.281Z,14.43
2018-12-11T07:01:34.396Z,14.40
2018-12-11T07:04:03.422Z,13.80
2018-12-11T07:06:32.464Z,15.83
2018-12-11T07:09:01.502Z,14.17
2018-12-11T07:11:30.561Z,13.20
2018-12-11T07:13:59.799Z,13.60
2018-12-11T07:16:28.842Z,14.20
2018-12-11T07:18:57.920Z,13.43
2018-12-11T07:21:26.926Z,14.50
2018-12-11T07:23:55.985Z,13.97
2018-12-11T07:26:25.035Z,13.20
2018-12-11T07:28:54.015Z,13.23
2018-12-11T07:31:23.041Z,13.33
2018-12-11T07:33:52.054Z,13.90
2018-12-11T07:36:21.035Z,13.50
2018-12-11T07:38:50.038Z,14.93
2018-12-11T07:41:19.112Z,15.97
2018-12-11T07:43:48.072Z,17.67
2018-12-11T07:46:17.100Z,14.57
2018-12-11T07:48:46.119Z,18.17
2018-12-11T07:51:15.088Z,17.57
2018-12-11T07:53:44.030Z,17.37
2018-12-11T07:56:13.012Z,15.63
2018-12-11T07:58:41.973Z,15.63
2018-12-11T08:01:10.969Z,15.47
2018-12-11T08:03:40.007Z,14.90
2018-12-11T08:06:09.293Z,15.17
2018-12-11T08:08:38.372Z,16.57
2018-12-11T08:11:07.363Z,17.37
2018-12-11T08:13:37.299Z,16.93
2018-12-11T08:16:06.427Z,17.93
2018-12-11T08:18:35.384Z,18.00
2018-12-11T08:21:04.403Z,17.33
2018-12-11T08:23:33.302Z,15.37
2018-12-11T08:26:02.634Z,14.73
2018-12-11T08:28:31.668Z,16.50
2018-12-11T08:31:00.672Z,15.40
2018-12-11T08:33:29.610Z,15.77
2018-12-11T08:35:58.679Z,14.93
2018-12-11T08:38:28.041Z,24.20
2018-12-11T08:40:57.026Z,23.97
2018-12-11T08:43:26.063Z,23.83
2018-12-11T08:45:55.072Z,19.83
2018-12-11T08:48:24.099Z,18.50
2018-12-11T08:50:52.959Z,27.33
2018-12-11T08:53:21.818Z,14.63
2018-12-11T08:55:51.472Z,19.07
2018-12-11T08:58:20.406Z,17.83
2018-12-11T09:00:49.368Z,19.20
2018-12-11T09:03:18.233Z,17.03
2018-12-11T09:05:47.099Z,27.50
2018-12-11T09:08:16.084Z,21.97
2018-12-11T09:10:44.979Z,19.33
2018-12-11T09:13:13.835Z,15.23
2018-12-11T09:15:42.724Z,13.30
2018-12-11T09:18:11.643Z,13.50
2018-12-11T09:20:40.485Z,15.00
2018-12-11T09:23:09.405Z,37.40
2018-12-11T09:25:38.256Z,31.90
2018-12-11T09:28:10.924Z,17.80
2018-12-11T09:30:38.078Z,12.67
2018-12-11T09:33:06.937Z,17.10
2018-12-11T09:35:35.854Z,18.60
2018-12-11T09:38:05.106Z,23.33
2018-12-11T09:40:34.076Z,25.90
2018-12-11T09:43:02.930Z,22.50
2018-12-11T09:45:31.812Z,21.53
2018-12-11T09:48:00.670Z,15.97
2018-12-11T09:50:32.706Z,20.40
2018-12-11T09:53:01.999Z,14.47
2018-12-11T09:55:31.470Z,15.03
2018-12-11T09:58:00.319Z,15.83
2018-12-11T10:00:29.333Z,20.50
2018-12-11T10:02:58.302Z,15.80
2018-12-11T10:05:27.161Z,17.07
2018-12-11T10:07:56.128Z,20.97
2018-12-11T10:10:24.988Z,18.70
2018-12-11T10:12:53.848Z,14.20
2018-12-11T10:15:22.757Z,19.00
2018-12-11T10:17:51.610Z,14.13
2018-12-11T10:20:21.154Z,14.03
2018-12-11T10:22:50.031Z,13.47
2018-12-11T10:25:18.877Z,12.07
2018-12-11T10:27:47.732Z,11.83
2018-12-11T10:30:16.633Z,11.13
2018-12-11T10:32:49.647Z,11.10
2018-12-11T10:35:18.553Z,12.13
2018-12-11T10:37:47.457Z,11.20
2018-12-11T10:40:16.362Z,10.20
2018-12-11T10:42:45.269Z,9.73
2018-12-11T10:45:14.114Z,9.17
2018-12-11T10:47:43.054Z,8.23
2018-12-11T10:50:11.973Z,7.57
2018-12-11T10:52:41.521Z,8.30
2018-12-11T10:55:10.389Z,8.07
2018-12-11T10:57:39.279Z,8.03
2018-12-11T11:00:11.085Z,8.63
2018-12-11T11:02:44.106Z,7.53
2018-12-11T11:05:13.079Z,7.33
2018-12-11T11:07:42.507Z,7.30
2018-12-11T11:10:11.387Z,7.80
2018-12-11T11:12:40.245Z,7.53
2018-12-11T11:15:09.185Z,6.73
2018-12-11T11:17:38.039Z,7.27
2018-12-11T11:20:07.131Z,7.80
2018-12-11T11:22:36.342Z,7.90
2018-12-11T11:25:05.562Z,16.80
2018-12-11T11:27:34.401Z,8.30
2018-12-11T11:30:03.328Z,9.20
2018-12-11T11:32:32.185Z,7.20
2018-12-11T11:35:01.063Z,6.57
2018-12-11T11:37:29.977Z,8.27
2018-12-11T11:39:58.826Z,7.67
2018-12-11T11:42:27.823Z,7.10
2018-12-11T11:44:57.060Z,7.40
2018-12-11T11:47:25.951Z,6.80
2018-12-11T11:49:54.823Z,6.33
2018-12-11T11:52:23.684Z,11.37
2018-12-11T11:54:52.570Z,6.10
2018-12-11T11:57:21.406Z,6.40
2018-12-11T11:59:50.250Z,7.60
2018-12-11T12:02:19.919Z,7.63
2018-12-11T12:04:48.815Z,9.10
2018-12-11T12:07:17.682Z,7.67
2018-12-11T12:09:46.590Z,7.87
2018-12-11T12:12:15.409Z,8.43
2018-12-11T12:14:49.021Z,7.57
2018-12-11T12:17:15.180Z,8.33
2018-12-11T12:19:44.083Z,9.50
2018-12-11T12:22:12.936Z,9.30
2018-12-11T12:24:41.757Z,8.50
2018-12-11T12:27:11.028Z,11.27
2018-12-11T12:29:39.919Z,8.40
2018-12-11T12:32:08.773Z,25.87
2018-12-11T12:34:37.639Z,13.17
2018-12-11T12:37:06.567Z,10.07
2018-12-11T12:39:35.519Z,10.07
2018-12-11T12:42:04.508Z,11.30
2018-12-11T12:44:33.404Z,8.70
2018-12-11T12:47:02.258Z,9.93
2018-12-11T12:49:31.503Z,7.43
2018-12-11T12:52:00.398Z,8.30
2018-12-11T12:54:29.610Z,8.20
2018-12-11T12:56:58.472Z,10.23
2018-12-11T12:59:27.355Z,10.23
2018-12-11T13:01:56.206Z,9.37
2018-12-11T13:04:25.089Z,7.43
2018-12-11T13:06:54.013Z,8.07
2018-12-11T13:09:23.395Z,9.53
2018-12-11T13:11:52.919Z,10.53
2018-12-11T13:14:21.789Z,10.77
2018-12-11T13:16:50.630Z,11.97
2018-12-11T13:19:19.509Z,12.50
2018-12-11T13:21:48.408Z,9.80
2018-12-11T13:24:17.921Z,8.13
2018-12-11T13:26:46.794Z,10.13
2018-12-11T13:29:15.621Z,12.77
2018-12-11T13:31:44.569Z,11.73
2018-12-11T13:34:13.696Z,7.77
2018-12-11T13:36:42.677Z,7.50
2018-12-11T13:39:11.589Z,6.80
2018-12-11T13:41:40.494Z,6.57
2018-12-11T13:44:09.489Z,8.27
2018-12-11T13:46:38.652Z,10.83
2018-12-11T13:49:07.628Z,9.47
2018-12-11T13:51:36.458Z,8.77
2018-12-11T13:54:05.344Z,8.03
2018-12-11T13:56:34.209Z,7.60
2018-12-11T13:59:03.066Z,7.40
2018-12-11T14:01:32.023Z,9.33
2018-12-11T14:04:00.866Z,8.33
2018-12-11T14:06:29.879Z,7.83
2018-12-11T14:09:00.812Z,9.10
2018-12-11T14:11:29.825Z,9.10
2018-12-11T14:13:58.686Z,8.60
2018-12-11T14:16:27.524Z,10.27
2018-12-11T14:18:56.470Z,10.50
2018-12-11T14:21:25.362Z,11.57
2018-12-11T14:23:54.275Z,18.50
2018-12-11T14:26:23.193Z,20.90
2018-12-11T14:28:58.302Z,17.30
2018-12-11T14:31:27.225Z,20.27
2018-12-11T14:33:56.582Z,23.87
2018-12-11T14:36:25.541Z,30.13
2018-12-11T14:38:54.412Z,30.47
2018-12-11T14:41:23.282Z,29.70
2018-12-11T14:43:52.208Z,31.40
2018-12-11T14:46:21.077Z,33.00
2018-12-11T14:48:49.980Z,27.53
2018-12-11T14:51:18.901Z,33.77
2018-12-11T14:53:47.783Z,25.73
2018-12-11T14:56:16.769Z,56.30
2018-12-11T14:58:45.733Z,81.63
2018-12-11T15:01:14.625Z,148.27
2018-12-11T15:03:43.670Z,149.97
2018-12-11T15:06:12.845Z,66.20
2018-12-11T15:08:41.746Z,61.23
2018-12-11T15:11:10.906Z,30.67
2018-12-11T15:13:39.950Z,21.00
2018-12-11T15:16:08.959Z,17.43
2018-12-11T15:18:37.815Z,16.00
2018-12-11T15:21:06.738Z,23.63
2018-12-11T15:23:35.726Z,21.27
2018-12-11T15:26:05.561Z,50.07
2018-12-11T15:28:34.973Z,38.57
2018-12-11T15:31:13.292Z,33.10
2018-12-11T15:33:42.614Z,20.73
2018-12-11T15:36:15.893Z,19.33
2018-12-11T15:38:44.793Z,21.07
2018-12-11T15:41:13.687Z,28.53
2018-12-11T15:43:42.563Z,35.73
2018-12-11T15:46:11.446Z,30.90
2018-12-11T15:48:40.447Z,29.73
2018-12-11T15:51:09.329Z,32.37
2018-12-11T15:53:38.207Z,34.77
2018-12-11T15:56:07.064Z,33.30
2018-12-11T15:58:36.109Z,39.03
2018-12-11T16:01:05.007Z,55.13
2018-12-11T16:03:33.906Z,83.57
2018-12-11T16:06:02.867Z,51.13
2018-12-11T16:08:31.718Z,51.93
2018-12-11T16:11:00.657Z,44.63
2018-12-11T16:13:29.514Z,59.87
2018-12-11T16:15:58.448Z,45.13
2018-12-11T16:18:27.377Z,38.53
2018-12-11T16:20:56.290Z,34.40
2018-12-11T16:23:25.175Z,35.13
2018-12-11T16:25:54.159Z,90.53
2018-12-11T16:28:23.051Z,64.67
2018-12-11T16:30:51.906Z,69.47
2018-12-11T16:33:20.823Z,89.60
2018-12-11T16:35:49.717Z,73.53
2018-12-11T16:38:18.618Z,47.10
2018-12-11T16:40:48.179Z,54.03
2018-12-11T16:43:17.118Z,55.77
2018-12-11T16:45:45.994Z,124.50
2018-12-11T16:48:14.869Z,128.83
2018-12-11T16:50:43.818Z,97.87
2018-12-11T16:53:12.757Z,84.20
2018-12-11T16:55:41.669Z,82.40
2018-12-11T16:58:10.658Z,74.80
2018-12-11T17:00:39.530Z,70.83
2018-12-11T17:03:08.404Z,73.73
2018-12-11T17:05:37.332Z,56.07
2018-12-11T17:08:06.295Z,75.80
2018-12-11T17:10:36.016Z,52.33
2018-12-11T17:13:05.318Z,65.97
2018-12-11T17:15:34.472Z,53.10
2018-12-11T17:18:03.517Z,55.73
2018-12-11T17:20:33.333Z,62.90
2018-12-11T17:23:02.234Z,61.57
2018-12-11T17:25:31.184Z,62.90
2018-12-11T17:28:00.126Z,57.33
2018-12-11T17:30:29.055Z,56.00
2018-12-11T17:32:58.355Z,49.70
2018-12-11T17:35:27.377Z,50.63
2018-12-11T17:37:56.302Z,70.90
2018-12-11T17:40:34.774Z,154.13
2018-12-11T17:43:03.830Z,158.77
2018-12-11T17:45:32.686Z,94.23
2018-12-11T17:48:02.369Z,84.10
2018-12-11T17:50:31.305Z,67.60
2018-12-11T17:53:00.178Z,69.50
2018-12-11T17:55:29.088Z,60.77
2018-12-11T17:57:57.990Z,90.30
2018-12-11T18:00:26.987Z,75.43
2018-12-11T18:02:56.172Z,74.53
2018-12-11T18:05:25.825Z,75.77
2018-12-11T18:07:54.683Z,68.77
2018-12-11T18:10:23.589Z,79.07
2018-12-11T18:12:52.467Z,70.70
2018-12-11T18:15:21.375Z,69.93
2018-12-11T18:17:50.283Z,61.23
2018-12-11T18:20:19.223Z,55.47
2018-12-11T18:22:48.129Z,52.37
2018-12-11T18:25:17.137Z,55.97
2018-12-11T18:27:52.346Z,62.57
2018-12-11T18:30:27.488Z,46.40
2018-12-11T18:33:06.151Z,55.03
2018-12-11T18:35:42.162Z,49.63
2018-12-11T18:38:22.890Z,41.00
2018-12-11T18:40:52.081Z,37.73
2018-12-11T18:43:21.998Z,40.60
2018-12-11T18:45:50.877Z,41.47
2018-12-11T18:48:19.775Z,53.93
2018-12-11T18:50:48.754Z,48.60
2018-12-11T18:53:17.670Z,54.27
2018-12-11T18:55:46.549Z,52.97
2018-12-11T18:58:15.553Z,57.93
2018-12-11T19:00:49.829Z,64.47
2018-12-11T19:03:19.521Z,59.40
2018-12-11T19:05:49.897Z,61.33
2018-12-11T19:08:22.178Z,56.17
2018-12-11T19:10:58.292Z,58.07
2018-12-11T19:13:36.964Z,53.90
2018-12-11T19:16:13.096Z,52.87
2018-12-11T19:18:46.413Z,65.93
2018-12-11T19:21:24.886Z,162.27
2018-12-11T19:24:08.179Z,108.57
2018-12-11T19:26:46.685Z,81.40
2018-12-11T19:29:25.470Z,98.23
2018-12-11T19:34:57.711Z,83.10
2018-12-11T19:40:44.747Z,107.70
2018-12-11T19:43:26.340Z,108.20
2018-12-11T19:46:01.980Z,118.00
2018-12-11T19:48:43.622Z,112.40
2018-12-11T19:51:16.249Z,95.07
2018-12-11T19:53:52.595Z,92.20
2018-12-11T19:56:33.818Z,91.57
2018-12-11T19:59:04.119Z,113.63
2018-12-11T20:01:38.935Z,136.33
2018-12-11T20:04:08.071Z,124.33
2018-12-11T20:06:37.003Z,150.10
2018-12-11T20:09:07.797Z,142.03
2018-12-11T20:11:42.373Z,124.97
2018-12-11T20:14:17.146Z,79.27
2018-12-11T20:16:52.094Z,63.50
2018-12-11T20:19:26.444Z,73.77
2018-12-11T20:22:01.143Z,64.43
2018-12-11T20:24:30.092Z,82.47
2018-12-11T20:26:58.966Z,83.73
2018-12-11T20:29:27.890Z,73.63
2018-12-11T20:31:57.219Z,66.30
2018-12-11T20:34:26.924Z,66.90
2018-12-11T20:37:04.018Z,72.90
2018-12-11T20:39:38.804Z,66.17
2018-12-11T20:42:14.609Z,66.07
2018-12-11T20:44:55.999Z,61.87
2018-12-11T20:47:44.559Z,82.20
2018-12-11T20:53:28.011Z,94.20
2018-12-11T20:56:02.397Z,85.77
2018-12-11T20:58:35.133Z,87.20
2018-12-11T21:01:09.366Z,83.23
2018-12-11T21:03:44.519Z,90.97
2018-12-11T21:06:16.931Z,104.13
2018-12-11T21:08:49.626Z,115.60
2018-12-11T21:11:18.493Z,129.07
2018-12-11T21:13:47.490Z,120.23
2018-12-11T21:16:16.517Z,111.87
2018-12-11T21:18:45.773Z,135.83
2018-12-11T21:21:26.567Z,162.10
2018-12-11T21:23:56.483Z,124.77
2018-12-11T21:26:25.704Z,109.63
2018-12-11T21:28:54.770Z,191.70
2018-12-11T21:31:24.918Z,129.10
2018-12-11T21:33:54.274Z,104.30
2018-12-11T21:36:23.222Z,111.77
2018-12-11T21:38:52.254Z,106.80
2018-12-11T21:41:21.240Z,148.70
2018-12-11T21:43:56.014Z,105.37
2018-12-11T21:46:24.929Z,120.43
2018-12-11T21:48:54.638Z,115.37
2018-12-11T21:51:24.421Z,203.43
2018-12-11T21:53:53.409Z,131.67
2018-12-11T21:56:22.297Z,136.67
2018-12-11T21:58:51.234Z,142.90
2018-12-11T22:01:20.082Z,150.27
2018-12-11T22:03:49.027Z,112.40
2018-12-11T22:06:28.526Z,110.53
2018-12-11T22:08:57.402Z,91.20
2018-12-11T22:11:26.282Z,137.43
2018-12-11T22:13:55.592Z,136.13
2018-12-11T22:16:24.442Z,93.43
2018-12-11T22:18:53.287Z,87.43
2018-12-11T22:21:22.289Z,114.30
2018-12-11T22:23:51.317Z,86.40
2018-12-11T22:26:20.188Z,91.67
2018-12-11T22:28:54.661Z,83.27
2018-12-11T22:31:27.314Z,82.77
2018-12-11T22:34:01.631Z,139.50
2018-12-11T22:36:30.562Z,91.77
2018-12-11T22:39:07.331Z,113.33
2018-12-11T22:41:42.119Z,138.73
2018-12-11T22:44:18.099Z,96.73
2018-12-11T22:46:51.343Z,83.40
2018-12-11T22:49:25.800Z,123.70
2018-12-11T22:52:00.906Z,128.60
2018-12-11T22:54:36.083Z,111.43
2018-12-11T22:57:05.081Z,89.43
2018-12-11T22:59:34.006Z,84.87
2018-12-11T23:02:02.947Z,74.80
2018-12-11T23:04:31.886Z,73.93
2018-12-11T23:07:00.728Z,100.17
2018-12-11T23:09:29.585Z,120.13
2018-12-11T23:11:58.637Z,80.37
2018-12-11T23:14:27.480Z,106.50
2018-12-11T23:16:56.362Z,85.57
2018-12-11T23:19:25.272Z,74.20
2018-12-11T23:21:54.176Z,78.03
2018-12-11T23:24:24.039Z,68.60
2018-12-11T23:26:53.038Z,97.53
2018-12-11T23:29:27.677Z,75.70
2018-12-11T23:32:02.694Z,64.90
2018-12-11T23:34:41.454Z,63.53
2018-12-11T23:37:16.347Z,82.17
2018-12-11T23:39:48.910Z,71.07
2018-12-11T23:42:23.192Z,57.53
2018-12-11T23:44:55.857Z,57.70
2018-12-11T23:52:32.737Z,68.73
2018-12-11T23:55:07.431Z,62.67
2018-12-11T23:57:40.003Z,67.60
